createdAt,value
2022-09-06T00:00:03.469Z,17.51
2022-09-06T00:01:03.407Z,17.52
2022-09-06T00:02:03.568Z,17.52
2022-09-06T00:03:03.422Z,17.51
2022-09-06T00:04:03.581Z,17.49
2022-09-06T00:05:03.357Z,17.46
2022-09-06T00:06:05.576Z,17.44
2022-09-06T00:07:03.331Z,17.42
2022-09-06T00:08:03.358Z,17.40
2022-09-06T00:09:03.319Z,17.39
2022-09-06T00:10:03.346Z,17.37
2022-09-06T00:11:03.328Z,17.36
2022-09-06T00:12:26.417Z,17.35
2022-09-06T00:13:03.239Z,17.34
2022-09-06T00:14:03.370Z,17.34
2022-09-06T00:15:03.219Z,17.33
2022-09-06T00:16:04.431Z,17.32
2022-09-06T00:17:03.310Z,17.31
2022-09-06T00:18:03.290Z,17.30
2022-09-06T00:19:03.175Z,17.30
2022-09-06T00:20:03.370Z,17.29
2022-09-06T00:21:03.142Z,17.29
2022-09-06T00:22:03.222Z,17.28
2022-09-06T00:23:03.205Z,17.29
2022-09-06T00:24:05.289Z,17.29
2022-09-06T00:25:03.120Z,17.30
2022-09-06T00:26:03.228Z,17.30
2022-09-06T00:27:03.080Z,17.31
2022-09-06T00:28:03.159Z,17.31
2022-09-06T00:29:03.101Z,17.30
2022-09-06T00:30:03.099Z,17.30
2022-09-06T00:31:03.086Z,17.29
2022-09-06T00:32:03.183Z,17.28
2022-09-06T00:33:02.981Z,17.27
2022-09-06T00:34:03.241Z,17.25
2022-09-06T00:35:03.090Z,17.24
2022-09-06T00:36:03.011Z,17.23
2022-09-06T00:37:02.943Z,17.23
2022-09-06T00:38:03.041Z,17.23
2022-09-06T00:39:02.901Z,17.24
2022-09-06T00:40:04.051Z,17.25
2022-09-06T00:41:02.942Z,17.26
2022-09-06T00:42:04.099Z,17.28
2022-09-06T00:43:02.868Z,17.29
2022-09-06T00:44:02.950Z,17.30
2022-09-06T00:45:02.835Z,17.30
2022-09-06T00:46:03.968Z,17.29
2022-09-06T00:47:02.852Z,17.28
2022-09-06T00:48:02.919Z,17.27
2022-09-06T00:49:02.794Z,17.26
2022-09-06T00:50:03.873Z,17.25
2022-09-06T00:51:02.743Z,17.24
2022-09-06T00:52:04.983Z,17.23
2022-09-06T00:53:02.774Z,17.23
2022-09-06T00:54:03.903Z,17.22
2022-09-06T00:55:02.712Z,17.22
2022-09-06T00:56:02.813Z,17.21
2022-09-06T00:57:02.665Z,17.20
2022-09-06T00:58:03.782Z,17.19
2022-09-06T00:59:02.653Z,17.17
2022-09-06T01:00:02.733Z,17.15
2022-09-06T01:01:02.801Z,17.12
2022-09-06T01:02:02.839Z,17.10
2022-09-06T01:03:02.593Z,17.07
2022-09-06T01:04:03.724Z,17.04
2022-09-06T01:05:02.565Z,17.01
2022-09-06T01:06:02.632Z,16.98
2022-09-06T01:07:02.603Z,16.96
2022-09-06T01:08:02.675Z,16.96
2022-09-06T01:09:02.515Z,16.95
2022-09-06T01:10:02.707Z,16.94
2022-09-06T01:11:02.484Z,16.92
2022-09-06T01:12:02.755Z,16.91
2022-09-06T01:13:02.502Z,16.89
2022-09-06T01:14:02.575Z,16.87
2022-09-06T01:15:02.483Z,16.86
2022-09-06T01:16:02.594Z,16.84
2022-09-06T01:17:02.424Z,16.83
2022-09-06T01:18:02.544Z,16.83
2022-09-06T01:19:02.394Z,16.82
2022-09-06T01:20:02.515Z,16.82
2022-09-06T01:21:02.372Z,16.82
2022-09-06T01:22:03.514Z,16.82
2022-09-06T01:23:02.395Z,16.84
2022-09-06T01:24:02.466Z,16.85
2022-09-06T01:25:02.315Z,16.86
2022-09-06T01:26:02.437Z,16.87
2022-09-06T01:27:02.294Z,16.88
2022-09-06T01:28:02.465Z,16.90
2022-09-06T01:29:02.285Z,16.91
2022-09-06T01:30:02.360Z,16.92
2022-09-06T01:31:02.337Z,16.93
2022-09-06T01:32:02.394Z,16.92
2022-09-06T01:33:02.217Z,16.91
2022-09-06T01:34:03.251Z,16.92
2022-09-06T01:35:02.180Z,16.92
2022-09-06T01:36:03.285Z,16.91
2022-09-06T01:37:10.778Z,16.91
2022-09-06T01:38:03.135Z,16.91
2022-09-06T01:39:02.297Z,16.91
2022-09-06T01:40:02.175Z,16.91
2022-09-06T01:41:03.227Z,16.92
2022-09-06T01:42:02.097Z,16.91
2022-09-06T01:43:04.560Z,16.93
2022-09-06T01:44:02.087Z,16.94
2022-09-06T01:45:03.216Z,16.96
2022-09-06T01:46:02.105Z,16.98
2022-09-06T01:47:02.114Z,16.98
2022-09-06T01:48:02.037Z,17.00
2022-09-06T01:49:02.147Z,17.03
2022-09-06T01:50:01.967Z,17.06
2022-09-06T01:51:03.107Z,17.05
2022-09-06T01:52:01.987Z,17.07
2022-09-06T01:53:02.117Z,17.09
2022-09-06T01:54:01.938Z,17.11
2022-09-06T01:55:02.048Z,17.14
2022-09-06T01:56:01.900Z,17.16
2022-09-06T01:57:02.088Z,17.17
2022-09-06T01:58:01.904Z,17.18
2022-09-06T01:59:02.017Z,17.20
2022-09-06T02:00:01.929Z,17.22
2022-09-06T02:01:02.008Z,17.24
2022-09-06T02:02:01.845Z,17.25
2022-09-06T02:03:23.997Z,17.26
2022-09-06T02:04:01.847Z,17.26
2022-09-06T02:05:01.821Z,17.28
2022-09-06T02:06:01.850Z,17.28
2022-09-06T02:07:03.961Z,17.28
2022-09-06T02:08:01.732Z,17.28
2022-09-06T02:09:02.824Z,17.27
2022-09-06T02:10:01.730Z,17.26
2022-09-06T02:11:01.741Z,17.24
2022-09-06T02:12:01.697Z,17.24
2022-09-06T02:13:03.860Z,17.23
2022-09-06T02:14:01.659Z,17.21
2022-09-06T02:15:02.727Z,17.20
2022-09-06T02:16:01.640Z,17.19
2022-09-06T02:17:01.903Z,17.19
2022-09-06T02:18:01.639Z,17.19
2022-09-06T02:19:01.773Z,17.18
2022-09-06T02:20:01.571Z,17.17
2022-09-06T02:21:02.896Z,17.17
2022-09-06T02:22:01.581Z,17.17
2022-09-06T02:23:01.657Z,17.17
2022-09-06T02:24:01.558Z,17.17
2022-09-06T02:25:02.604Z,17.18
2022-09-06T02:26:01.491Z,17.19
2022-09-06T02:27:22.649Z,17.18
2022-09-06T02:28:01.493Z,17.17
2022-09-06T02:29:01.675Z,17.15
2022-09-06T02:30:01.440Z,17.13
2022-09-06T02:31:01.672Z,17.11
2022-09-06T02:32:01.410Z,17.11
2022-09-06T02:33:01.529Z,17.09
2022-09-06T02:34:01.382Z,17.09
2022-09-06T02:35:01.457Z,17.08
2022-09-06T02:36:01.424Z,17.07
2022-09-06T02:37:03.581Z,17.08
2022-09-06T02:38:01.344Z,17.08
2022-09-06T02:39:01.472Z,17.09
2022-09-06T02:40:01.363Z,17.12
2022-09-06T02:41:01.341Z,17.13
2022-09-06T02:42:01.343Z,17.13
2022-09-06T02:43:01.398Z,17.14
2022-09-06T02:44:01.332Z,17.13
2022-09-06T02:45:02.485Z,17.13
2022-09-06T02:46:01.307Z,17.14
2022-09-06T02:47:24.474Z,17.16
2022-09-06T02:48:01.228Z,17.17
2022-09-06T02:49:01.407Z,17.16
2022-09-06T02:50:01.285Z,17.15
2022-09-06T02:51:02.261Z,17.15
2022-09-06T02:52:01.152Z,17.15
2022-09-06T02:53:02.300Z,17.14
2022-09-06T02:54:01.163Z,17.12
2022-09-06T02:55:01.211Z,17.10
2022-09-06T02:56:01.171Z,17.10
2022-09-06T02:57:01.246Z,17.08
2022-09-06T02:58:01.072Z,17.07
2022-09-06T02:59:01.213Z,17.06
2022-09-06T03:00:01.065Z,17.03
2022-09-06T03:01:01.147Z,17.03
2022-09-06T03:02:01.147Z,17.02
2022-09-06T03:03:01.150Z,17.02
2022-09-06T03:04:00.993Z,17.02
2022-09-06T03:05:02.112Z,17.02
2022-09-06T03:06:00.977Z,17.04
2022-09-06T03:07:01.203Z,17.05
2022-09-06T03:08:00.945Z,17.04
2022-09-06T03:09:01.055Z,17.01
2022-09-06T03:10:00.915Z,16.99
2022-09-06T03:11:01.050Z,16.97
2022-09-06T03:12:00.885Z,16.96
2022-09-06T03:13:01.026Z,16.95
2022-09-06T03:14:00.976Z,16.96
2022-09-06T03:15:00.958Z,16.98
2022-09-06T03:16:00.842Z,16.99
2022-09-06T03:17:01.041Z,16.99
2022-09-06T03:18:00.813Z,16.99
2022-09-06T03:19:00.885Z,16.99
2022-09-06T03:20:00.814Z,16.99
2022-09-06T03:21:00.945Z,17.00
2022-09-06T03:22:00.784Z,17.00
2022-09-06T03:23:00.905Z,16.96
2022-09-06T03:24:00.752Z,16.94
2022-09-06T03:25:00.895Z,16.94
2022-09-06T03:26:00.727Z,16.95
2022-09-06T03:27:00.831Z,16.94
2022-09-06T03:28:00.743Z,16.93
2022-09-06T03:29:00.806Z,16.92
2022-09-06T03:30:00.707Z,16.91
2022-09-06T03:31:00.887Z,16.91
2022-09-06T03:32:00.616Z,16.89
2022-09-06T03:33:02.862Z,16.86
2022-09-06T03:34:00.666Z,16.85
2022-09-06T03:35:01.774Z,16.86
2022-09-06T03:36:00.665Z,16.89
2022-09-06T03:37:00.648Z,16.93
2022-09-06T03:38:00.546Z,16.95
2022-09-06T03:39:00.715Z,16.95
2022-09-06T03:40:00.616Z,16.94
2022-09-06T03:41:00.615Z,16.96
2022-09-06T03:42:00.577Z,16.97
2022-09-06T03:43:01.785Z,16.97
2022-09-06T03:44:00.468Z,16.97
2022-09-06T03:45:00.494Z,16.95
2022-09-06T03:46:00.506Z,16.94
2022-09-06T03:47:03.747Z,16.94
2022-09-06T03:48:00.487Z,16.93
2022-09-06T03:49:21.547Z,16.91
2022-09-06T03:50:00.393Z,16.90
2022-09-06T03:51:00.496Z,16.88
2022-09-06T03:52:00.368Z,16.83
2022-09-06T03:53:03.758Z,16.77
2022-09-06T03:54:00.420Z,16.71
2022-09-06T03:55:00.368Z,16.65
2022-09-06T03:56:00.311Z,16.59
2022-09-06T03:57:00.440Z,16.53
2022-09-06T03:58:00.308Z,16.47
2022-09-06T03:59:22.360Z,16.42
2022-09-06T04:00:00.311Z,16.36
2022-09-06T04:01:00.434Z,16.30
2022-09-06T04:02:00.271Z,16.26
2022-09-06T04:03:01.973Z,16.24
2022-09-06T04:04:00.223Z,16.24
2022-09-06T04:05:00.293Z,16.23
2022-09-06T04:06:00.190Z,16.20
2022-09-06T04:07:02.380Z,16.16
2022-09-06T04:08:00.149Z,16.12
2022-09-06T04:09:00.310Z,16.07
2022-09-06T04:10:00.163Z,16.02
2022-09-06T04:11:02.479Z,15.98
2022-09-06T04:12:00.101Z,15.91
2022-09-06T04:13:01.201Z,15.87
2022-09-06T04:14:00.153Z,15.85
2022-09-06T04:15:00.125Z,15.83
2022-09-06T04:16:00.090Z,15.83
2022-09-06T04:17:00.215Z,15.84
2022-09-06T04:18:00.030Z,15.83
2022-09-06T04:19:00.193Z,15.82
2022-09-06T04:19:59.992Z,15.81
2022-09-06T04:21:02.360Z,15.80
2022-09-06T04:22:00.007Z,15.78
2022-09-06T04:23:00.071Z,15.75
2022-09-06T04:23:59.942Z,15.72
2022-09-06T04:24:59.991Z,15.69
2022-09-06T04:25:59.920Z,15.69
2022-09-06T04:27:00.093Z,15.70
2022-09-06T04:27:59.910Z,15.72
2022-09-06T04:29:00.106Z,15.74
2022-09-06T04:29:59.903Z,15.74
2022-09-06T04:31:04.623Z,15.72
2022-09-06T04:31:59.917Z,15.69
2022-09-06T04:32:59.958Z,15.65
2022-09-06T04:33:59.839Z,15.62
2022-09-06T04:34:59.894Z,15.60
2022-09-06T04:35:59.820Z,15.58
2022-09-06T04:37:01.891Z,15.57
2022-09-06T04:37:59.781Z,15.55
2022-09-06T04:39:00.991Z,15.53
2022-09-06T04:39:59.810Z,15.50
2022-09-06T04:40:59.789Z,15.49
2022-09-06T04:41:59.690Z,15.49
2022-09-06T04:42:59.879Z,15.48
2022-09-06T04:43:59.783Z,15.47
2022-09-06T04:44:59.746Z,15.47
2022-09-06T04:45:59.670Z,15.46
2022-09-06T04:46:59.782Z,15.45
2022-09-06T04:47:59.611Z,15.42
2022-09-06T04:49:00.742Z,15.41
2022-09-06T04:49:59.581Z,15.40
2022-09-06T04:51:00.712Z,15.40
2022-09-06T04:51:59.591Z,15.40
2022-09-06T04:52:59.692Z,15.41
2022-09-06T04:53:59.532Z,15.41
2022-09-06T04:55:00.643Z,15.41
2022-09-06T04:55:59.503Z,15.41
2022-09-06T04:57:20.703Z,15.42
2022-09-06T04:57:59.551Z,15.43
2022-09-06T04:58:59.490Z,15.45
2022-09-06T04:59:59.455Z,15.46
2022-09-06T05:00:59.608Z,15.47
2022-09-06T05:01:59.496Z,15.49
2022-09-06T05:02:59.641Z,15.50
2022-09-06T05:03:59.466Z,15.49
2022-09-06T05:04:59.495Z,15.49
2022-09-06T05:05:59.363Z,15.52
2022-09-06T05:06:59.544Z,15.56
2022-09-06T05:07:59.341Z,15.60
2022-09-06T05:08:59.551Z,15.61
2022-09-06T05:09:59.414Z,15.58
2022-09-06T05:10:59.403Z,15.54
2022-09-06T05:11:59.283Z,15.53
2022-09-06T05:12:59.443Z,15.53
2022-09-06T05:13:59.252Z,15.55
2022-09-06T05:14:59.443Z,15.58
2022-09-06T05:15:59.303Z,15.64
2022-09-06T05:16:59.469Z,15.71
2022-09-06T05:17:59.282Z,15.79
2022-09-06T05:18:59.243Z,15.85
2022-09-06T05:19:59.174Z,15.89
2022-09-06T05:20:59.345Z,15.91
2022-09-06T05:21:59.144Z,15.92
2022-09-06T05:22:59.214Z,15.93
2022-09-06T05:23:59.184Z,15.95
2022-09-06T05:25:01.345Z,15.95
2022-09-06T05:25:59.167Z,15.95
2022-09-06T05:26:59.243Z,15.95
2022-09-06T05:27:59.063Z,15.95
2022-09-06T05:29:00.144Z,15.95
2022-09-06T05:29:59.045Z,15.96
2022-09-06T05:30:59.159Z,15.94
2022-09-06T05:31:59.071Z,15.94
2022-09-06T05:32:59.145Z,15.95
2022-09-06T05:33:58.983Z,16.00
2022-09-06T05:34:59.157Z,16.07
2022-09-06T05:35:59.021Z,16.12
2022-09-06T05:36:59.065Z,16.16
2022-09-06T05:37:58.957Z,16.16
2022-09-06T05:38:59.067Z,16.16
2022-09-06T05:39:58.957Z,16.18
2022-09-06T05:40:59.074Z,16.23
2022-09-06T05:41:58.934Z,16.30
2022-09-06T05:42:58.973Z,16.37
2022-09-06T05:43:58.845Z,16.41
2022-09-06T05:44:58.957Z,16.41
2022-09-06T05:45:58.839Z,16.42
2022-09-06T05:46:59.967Z,16.42
2022-09-06T05:47:58.795Z,16.43
2022-09-06T05:48:58.920Z,16.43
2022-09-06T05:49:58.791Z,16.44
2022-09-06T05:50:58.796Z,16.44
2022-09-06T05:51:58.740Z,16.44
2022-09-06T05:53:19.839Z,16.48
2022-09-06T05:53:58.726Z,16.53
2022-09-06T05:54:59.817Z,16.57
2022-09-06T05:55:58.747Z,16.60
2022-09-06T05:56:59.800Z,16.65
2022-09-06T05:57:58.708Z,16.68
2022-09-06T05:59:00.899Z,16.68
2022-09-06T05:59:58.627Z,16.69
2022-09-06T06:00:58.882Z,16.71
2022-09-06T06:01:58.750Z,16.75
2022-09-06T06:02:58.826Z,16.80
2022-09-06T06:03:58.638Z,16.84
2022-09-06T06:05:21.729Z,16.88
2022-09-06T06:05:58.549Z,16.90
2022-09-06T06:06:58.688Z,16.93
2022-09-06T06:07:58.527Z,16.96
2022-09-06T06:08:58.680Z,16.97
2022-09-06T06:09:58.570Z,16.98
2022-09-06T06:12:07.953Z,16.63
2022-09-06T06:13:07.737Z,16.64
2022-09-06T06:14:07.925Z,16.87
2022-09-06T06:15:07.707Z,17.03
2022-09-06T06:16:09.876Z,17.11
2022-09-06T06:17:07.777Z,17.14
2022-09-06T06:18:07.746Z,17.19
2022-09-06T06:19:07.657Z,17.24
2022-09-06T06:20:07.736Z,17.28
2022-09-06T06:21:07.627Z,17.32
2022-09-06T06:22:08.692Z,17.35
2022-09-06T06:23:07.624Z,17.39
2022-09-06T06:24:07.756Z,17.42
2022-09-06T06:25:07.630Z,17.46
2022-09-06T06:26:07.740Z,17.49
2022-09-06T06:27:07.556Z,17.52
2022-09-06T06:28:07.621Z,17.55
2022-09-06T06:29:07.537Z,17.57
2022-09-06T06:30:07.790Z,17.56
2022-09-06T06:31:07.505Z,17.53
2022-09-06T06:32:07.687Z,17.50
2022-09-06T06:33:07.539Z,17.51
2022-09-06T06:34:07.638Z,17.55
2022-09-06T06:35:07.449Z,17.59
2022-09-06T06:36:07.579Z,17.62
2022-09-06T06:37:07.447Z,17.64
2022-09-06T06:38:11.650Z,17.66
2022-09-06T06:39:07.448Z,17.67
2022-09-06T06:40:09.597Z,17.69
2022-09-06T06:41:07.442Z,17.70
2022-09-06T06:42:07.591Z,17.71
2022-09-06T06:43:07.379Z,17.72
2022-09-06T06:44:07.566Z,17.72
2022-09-06T06:45:07.323Z,17.69
2022-09-06T06:46:07.492Z,17.68
2022-09-06T06:47:07.289Z,17.70
2022-09-06T06:48:07.487Z,17.71
2022-09-06T06:49:07.281Z,17.72
2022-09-06T06:50:08.349Z,17.73
2022-09-06T06:51:07.231Z,17.75
2022-09-06T06:52:07.351Z,17.78
2022-09-06T06:53:07.213Z,17.80
2022-09-06T06:54:07.384Z,17.83
2022-09-06T06:55:07.199Z,17.87
2022-09-06T06:56:07.306Z,17.90
2022-09-06T06:57:07.229Z,17.92
2022-09-06T06:58:07.250Z,17.93
2022-09-06T06:59:07.132Z,17.94
2022-09-06T07:00:07.281Z,17.97
2022-09-06T07:01:07.256Z,17.99
2022-09-06T07:02:08.316Z,18.01
2022-09-06T07:03:07.092Z,18.03
2022-09-06T07:04:08.179Z,18.06
2022-09-06T07:08:08.028Z,18.14
2022-09-06T07:09:07.093Z,18.18
2022-09-06T07:11:07.990Z,18.31
2022-09-06T07:12:07.144Z,18.36
2022-09-06T07:13:06.970Z,18.40
2022-09-06T07:14:07.002Z,18.44
2022-09-06T07:15:06.921Z,18.48
2022-09-06T07:16:07.009Z,18.51
2022-09-06T07:17:09.271Z,18.53
2022-09-06T07:18:07.063Z,18.55
2022-09-06T07:19:06.993Z,18.57
2022-09-06T07:20:14.787Z,18.57
2022-09-06T07:22:10.491Z,18.61
2022-09-06T07:24:08.790Z,18.66
2022-09-06T07:25:07.912Z,18.65
2022-09-06T07:26:06.874Z,18.64
2022-09-06T07:28:07.935Z,18.68
2022-09-06T07:29:06.744Z,18.69
2022-09-06T07:30:06.925Z,18.71
2022-09-06T07:31:07.351Z,18.74
2022-09-06T07:33:06.675Z,18.83
2022-09-06T07:34:06.843Z,18.87
2022-09-06T07:35:06.672Z,18.91
2022-09-06T07:36:07.764Z,18.98
2022-09-06T07:37:06.769Z,19.05
2022-09-06T07:38:06.813Z,19.11
2022-09-06T07:39:06.602Z,19.16
2022-09-06T07:40:07.760Z,19.20
2022-09-06T07:41:06.574Z,19.22
2022-09-06T07:42:08.714Z,19.26
2022-09-06T07:43:06.593Z,19.31
2022-09-06T07:44:08.725Z,19.36
2022-09-06T07:45:06.526Z,19.42
2022-09-06T07:46:06.616Z,19.50
2022-09-06T07:48:07.495Z,19.65
2022-09-06T07:49:06.565Z,19.71
2022-09-06T07:51:07.522Z,19.82
2022-09-06T07:53:09.515Z,19.92
2022-09-06T07:54:28.711Z,19.96
2022-09-06T07:55:07.423Z,20.00
2022-09-06T07:56:06.387Z,20.04
2022-09-06T07:57:06.476Z,20.08
2022-09-06T07:58:06.347Z,20.13
2022-09-06T07:59:08.478Z,20.18
2022-09-06T08:00:06.328Z,20.24
2022-09-06T08:01:10.777Z,20.27
2022-09-06T08:02:06.399Z,20.30
2022-09-06T08:03:06.600Z,20.33
2022-09-06T08:04:06.267Z,20.36
2022-09-06T08:09:07.204Z,20.52
2022-09-06T08:10:06.419Z,20.56
2022-09-06T08:11:06.200Z,20.60
2022-09-06T08:12:06.308Z,20.64
2022-09-06T08:13:06.167Z,20.67
2022-09-06T08:14:06.297Z,20.69
2022-09-06T08:15:06.130Z,20.71
2022-09-06T08:16:06.381Z,20.72
2022-09-06T08:17:06.154Z,20.73
2022-09-06T08:18:06.220Z,20.74
2022-09-06T08:19:06.147Z,20.73
2022-09-06T08:20:27.180Z,20.72
2022-09-06T08:21:10.218Z,20.72
2022-09-06T08:22:07.160Z,20.71
2022-09-06T08:23:06.019Z,20.72
2022-09-06T08:24:08.173Z,20.72
2022-09-06T08:25:06.080Z,20.72
2022-09-06T08:26:07.199Z,20.73
2022-09-06T08:27:05.959Z,20.74
2022-09-06T08:28:06.099Z,20.76
2022-09-06T08:29:05.952Z,20.78
2022-09-06T08:30:09.302Z,20.80
2022-09-06T08:31:06.040Z,20.83
2022-09-06T08:32:06.009Z,20.86
2022-09-06T08:33:05.889Z,20.89
2022-09-06T08:34:06.048Z,20.90
2022-09-06T08:35:05.870Z,20.91
2022-09-06T08:36:06.093Z,20.90
2022-09-06T08:37:05.841Z,20.92
2022-09-06T08:38:08.012Z,20.94
2022-09-06T08:39:05.894Z,20.97
2022-09-06T08:40:05.955Z,21.00
2022-09-06T08:41:05.790Z,21.03
2022-09-06T08:42:06.962Z,21.07
2022-09-06T08:43:05.762Z,21.10
2022-09-06T08:45:07.913Z,21.17
2022-09-06T08:46:05.722Z,21.21
2022-09-06T08:47:05.823Z,21.23
2022-09-06T08:48:05.744Z,21.25
2022-09-06T08:49:05.865Z,21.28
2022-09-06T08:50:05.670Z,21.31
2022-09-06T08:51:05.743Z,21.33
2022-09-06T08:52:05.676Z,21.35
2022-09-06T08:53:16.608Z,21.36
2022-09-06T08:54:06.672Z,21.38
2022-09-06T08:55:26.611Z,21.39
2022-09-06T08:56:05.595Z,21.41
2022-09-06T08:57:05.807Z,21.42
2022-09-06T08:58:05.599Z,21.45
2022-09-06T08:59:06.775Z,21.48
2022-09-06T09:00:06.362Z,21.50
2022-09-06T09:01:05.605Z,21.54
2022-09-06T09:02:05.621Z,21.57
2022-09-06T09:03:06.711Z,21.58
2022-09-06T09:04:05.474Z,21.60
2022-09-06T09:05:06.564Z,21.61
2022-09-06T09:06:05.493Z,21.63
2022-09-06T09:07:05.633Z,21.65
2022-09-06T09:08:05.426Z,21.68
2022-09-06T09:09:05.515Z,21.70
2022-09-06T09:10:05.404Z,21.72
2022-09-06T09:11:05.508Z,21.74
2022-09-06T09:12:05.384Z,21.75
2022-09-06T09:13:05.484Z,21.77
2022-09-06T09:14:05.384Z,21.80
2022-09-06T09:15:26.498Z,21.84
2022-09-06T09:16:05.376Z,21.88
2022-09-06T09:17:06.495Z,21.92
2022-09-06T09:18:05.366Z,21.96
2022-09-06T09:19:05.389Z,21.99
2022-09-06T09:20:05.314Z,22.02
2022-09-06T09:21:05.325Z,22.03
2022-09-06T09:22:05.233Z,22.05
2022-09-06T09:23:05.398Z,22.07
2022-09-06T09:24:05.285Z,22.09
2022-09-06T09:25:06.349Z,22.11
2022-09-06T09:26:05.191Z,22.13
2022-09-06T09:27:05.338Z,22.14
2022-09-06T09:28:05.164Z,22.15
2022-09-06T09:29:07.353Z,22.17
2022-09-06T09:31:07.365Z,22.20
2022-09-06T09:32:05.241Z,22.23
2022-09-06T09:33:05.089Z,22.25
2022-09-06T09:34:05.278Z,22.28
2022-09-06T09:35:05.157Z,22.31
2022-09-06T09:36:05.146Z,22.34
2022-09-06T09:38:09.521Z,22.39
2022-09-06T09:39:06.010Z,22.42
2022-09-06T09:40:06.201Z,22.45
2022-09-06T09:41:05.027Z,22.47
2022-09-06T09:42:27.105Z,22.47
2022-09-06T09:43:04.958Z,22.47
2022-09-06T09:44:05.265Z,22.48
2022-09-06T09:45:04.920Z,22.50
2022-09-06T09:46:06.086Z,22.54
2022-09-06T09:47:05.032Z,22.57
2022-09-06T09:48:05.094Z,22.60
2022-09-06T09:49:04.871Z,22.64
2022-09-06T09:50:04.993Z,22.67
2022-09-06T09:51:04.864Z,22.70
2022-09-06T09:52:04.992Z,22.73
2022-09-06T09:53:04.831Z,22.77
2022-09-06T09:54:27.932Z,22.80
2022-09-06T09:55:04.838Z,22.83
2022-09-06T09:56:04.891Z,22.86
2022-09-06T09:57:05.449Z,22.89
2022-09-06T09:58:04.978Z,22.92
2022-09-06T09:59:04.752Z,22.95
2022-09-06T10:00:04.791Z,22.96
2022-09-06T10:01:04.880Z,22.99
2022-09-06T10:02:04.793Z,23.00
2022-09-06T10:03:04.733Z,23.02
2022-09-06T10:05:26.853Z,23.06
2022-09-06T10:06:04.670Z,23.08
2022-09-06T10:08:04.625Z,23.12
2022-09-06T10:09:04.826Z,23.14
2022-09-06T10:10:04.688Z,23.16
2022-09-06T10:11:05.773Z,23.17
2022-09-06T10:12:04.564Z,23.18
2022-09-06T10:13:25.632Z,23.20
2022-09-06T10:14:04.564Z,23.22
2022-09-06T10:15:06.866Z,23.26
2022-09-06T10:16:04.598Z,23.27
2022-09-06T10:17:05.635Z,23.28
2022-09-06T10:18:04.494Z,23.30
2022-09-06T10:19:04.653Z,23.33
2022-09-06T10:20:04.472Z,23.34
2022-09-06T10:21:04.647Z,23.33
2022-09-06T10:22:04.505Z,23.31
2022-09-06T10:23:06.505Z,23.27
2022-09-06T10:25:05.405Z,23.23
2022-09-06T10:26:04.394Z,23.25
2022-09-06T10:27:04.540Z,23.31
2022-09-06T10:28:12.104Z,23.38
2022-09-06T10:29:05.349Z,23.45
2022-09-06T10:30:04.469Z,23.51
2022-09-06T10:31:04.415Z,23.58
2022-09-06T10:32:04.427Z,23.66
2022-09-06T10:33:04.330Z,23.76
2022-09-06T10:34:06.457Z,23.83
2022-09-06T10:35:04.270Z,23.87
2022-09-06T10:37:15.284Z,23.49
2022-09-06T10:38:15.091Z,23.49
2022-09-06T10:39:15.193Z,23.75
2022-09-06T10:40:15.035Z,23.91
2022-09-06T10:41:15.181Z,23.98
2022-09-06T10:42:14.958Z,23.98
2022-09-06T10:43:15.011Z,23.95
2022-09-06T10:44:14.964Z,23.93
2022-09-06T10:45:15.003Z,23.90
2022-09-06T10:46:14.923Z,23.88
2022-09-06T10:47:14.984Z,23.87
2022-09-06T10:48:15.128Z,23.88
2022-09-06T10:49:15.052Z,23.87
2022-09-06T10:50:14.903Z,23.90
2022-09-06T10:51:14.913Z,23.94
2022-09-06T10:52:14.816Z,23.99
2022-09-06T10:53:14.891Z,24.05
2022-09-06T10:54:14.800Z,24.11
2022-09-06T10:55:14.955Z,24.18
2022-09-06T10:56:14.871Z,24.26
2022-09-06T10:58:19.100Z,24.41
2022-09-06T11:00:15.708Z,24.52
2022-09-06T11:01:14.734Z,24.55
2022-09-06T11:02:15.920Z,24.57
2022-09-06T11:04:15.721Z,24.59
2022-09-06T11:06:17.322Z,24.57
2022-09-06T11:07:14.607Z,24.54
2022-09-06T11:09:15.595Z,24.49
2022-09-06T11:10:15.679Z,24.47
2022-09-06T11:11:14.626Z,24.47
2022-09-06T11:12:16.776Z,24.45
2022-09-06T11:13:14.556Z,24.43
2022-09-06T11:14:14.624Z,24.40
2022-09-06T11:15:14.506Z,24.38
2022-09-06T11:16:14.654Z,24.38
2022-09-06T11:17:14.502Z,24.39
2022-09-06T11:18:14.634Z,24.40
2022-09-06T11:19:14.449Z,24.42
2022-09-06T11:20:14.617Z,24.43
2022-09-06T11:21:19.247Z,24.46
2022-09-06T11:22:15.508Z,24.47
2022-09-06T11:23:14.520Z,24.48
2022-09-06T11:24:14.407Z,24.50
2022-09-06T11:25:15.481Z,24.50
2022-09-06T11:26:14.410Z,24.52
2022-09-06T11:27:15.575Z,24.50
2022-09-06T11:28:14.340Z,24.47
2022-09-06T11:29:14.419Z,24.45
2022-09-06T11:30:14.340Z,24.42
2022-09-06T11:33:14.400Z,24.34
2022-09-06T11:34:14.260Z,24.32
2022-09-06T11:35:16.442Z,24.31
2022-09-06T11:36:14.261Z,24.34
2022-09-06T11:37:14.299Z,24.40
2022-09-06T11:38:14.223Z,24.42
2022-09-06T11:39:14.300Z,24.47
2022-09-06T11:40:29.794Z,24.60
2022-09-06T11:41:15.183Z,24.77
2022-09-06T11:42:14.206Z,24.91
2022-09-06T11:43:14.143Z,25.00
2022-09-06T11:44:15.233Z,25.01
2022-09-06T11:45:14.103Z,25.05
2022-09-06T11:46:19.958Z,25.10
2022-09-06T11:47:15.112Z,25.07
2022-09-06T11:48:14.213Z,24.99
2022-09-06T11:49:14.052Z,24.96
2022-09-06T11:50:15.292Z,25.03
2022-09-06T11:51:14.032Z,25.13
2022-09-06T11:52:16.223Z,25.18
2022-09-06T11:53:14.034Z,25.22
2022-09-06T11:54:14.260Z,25.25
2022-09-06T11:55:13.974Z,25.26
2022-09-06T11:56:14.026Z,25.25
2022-09-06T11:57:13.954Z,25.23
2022-09-06T11:58:15.116Z,25.31
2022-09-06T11:59:14.004Z,25.44
2022-09-06T12:00:14.165Z,25.59
2022-09-06T12:01:13.900Z,25.66
2022-09-06T12:02:13.955Z,25.69
2022-09-06T12:04:14.955Z,25.79
2022-09-06T12:05:13.906Z,25.86
2022-09-06T12:06:15.004Z,25.85
2022-09-06T12:07:13.824Z,25.83
2022-09-06T12:08:13.967Z,25.80
2022-09-06T12:09:13.796Z,25.74
2022-09-06T12:10:13.927Z,25.63
2022-09-06T12:11:13.807Z,25.58
2022-09-06T12:13:23.254Z,25.40
2022-09-06T12:14:23.114Z,25.40
2022-09-06T12:15:23.194Z,25.75
2022-09-06T12:16:23.202Z,26.08
2022-09-06T12:17:24.216Z,26.35
2022-09-06T12:18:23.075Z,26.56
2022-09-06T12:19:23.142Z,26.75
2022-09-06T12:20:23.045Z,26.93
2022-09-06T12:21:23.135Z,27.08
2022-09-06T12:22:23.147Z,27.22
2022-09-06T12:23:23.096Z,27.33
2022-09-06T12:24:22.986Z,27.39
2022-09-06T12:25:23.035Z,27.43
2022-09-06T12:26:22.956Z,27.46
2022-09-06T12:27:23.222Z,27.51
2022-09-06T12:28:23.016Z,27.59
2022-09-06T12:29:24.086Z,27.63
2022-09-06T12:30:22.898Z,27.66
2022-09-06T12:31:23.064Z,27.68
2022-09-06T12:32:22.870Z,27.68
2022-09-06T12:33:22.988Z,27.66
2022-09-06T12:34:22.928Z,27.61
2022-09-06T12:36:23.969Z,27.62
2022-09-06T12:37:22.818Z,27.62
2022-09-06T12:38:24.065Z,27.64
2022-09-06T12:39:22.800Z,27.65
2022-09-06T12:41:32.328Z,26.96
2022-09-06T12:42:32.113Z,26.97
2022-09-06T12:43:33.189Z,27.19
2022-09-06T12:44:32.121Z,27.32
2022-09-06T12:45:32.193Z,27.40
2022-09-06T12:46:32.105Z,27.43
2022-09-06T12:47:32.161Z,27.47
2022-09-06T12:48:32.040Z,27.47
2022-09-06T12:49:33.189Z,27.44
2022-09-06T12:50:32.079Z,27.42
2022-09-06T12:51:32.206Z,27.42
2022-09-06T12:52:31.983Z,27.43
2022-09-06T12:53:32.074Z,27.43
2022-09-06T12:54:31.964Z,27.44
2022-09-06T12:55:32.125Z,27.46
2022-09-06T12:56:32.035Z,27.43
2022-09-06T12:57:34.102Z,27.39
2022-09-06T12:58:31.912Z,27.37
2022-09-06T12:59:32.053Z,27.36
2022-09-06T13:00:31.904Z,27.37
2022-09-06T13:01:33.150Z,27.38
2022-09-06T13:02:32.051Z,27.36
2022-09-06T13:03:31.920Z,27.38
2022-09-06T13:04:31.841Z,27.40
2022-09-06T13:05:31.959Z,27.42
2022-09-06T13:06:31.826Z,27.39
2022-09-06T13:07:31.896Z,27.33
2022-09-06T13:08:31.800Z,27.27
2022-09-06T13:09:31.834Z,27.22
2022-09-06T13:10:31.758Z,27.18
2022-09-06T13:11:31.875Z,27.17
2022-09-06T13:12:31.758Z,27.17
2022-09-06T13:13:31.755Z,27.18
2022-09-06T13:14:31.748Z,27.18
2022-09-06T13:15:31.862Z,27.16
2022-09-06T13:16:31.696Z,27.16
2022-09-06T13:17:31.758Z,27.17
2022-09-06T13:18:31.648Z,27.14
2022-09-06T13:19:32.735Z,27.13
2022-09-06T13:20:31.638Z,27.18
2022-09-06T13:21:32.787Z,27.26
2022-09-06T13:22:31.598Z,27.36
2022-09-06T13:23:31.769Z,27.44
2022-09-06T13:24:31.578Z,27.50
2022-09-06T13:25:31.724Z,27.52
2022-09-06T13:26:31.576Z,27.54